KCGE

Details ICAO KCGE
Name CAMBRIDGE DORCHESTER
Region United States
Timezone America/New_York (UTC-5.0)
Plans Departing 0
Arriving 1
Stats Elevation 19 ft / 6 m (AMSL)
Location 38.539325° -76.030399°
Runways 1
Magnetic Variation 11.335° W
Sunrise 2017-12-11 12:13:11 UTC / 2017-12-11 07:13:11 Local
Sunset 2017-12-11 21:44:40 UTC / 2017-12-11 16:44:40 Local
Advertisement - Login to hide

Runways

ID Width Length Bearing (true) Bearing (mag) Surface Threshold Offset Overrun Length
16 75 ft / 23 m 4,479 ft / 1,365 m 143.94° 155.28° Asphalt 0 ft / 0 m 0 ft / 0 m
34 75 ft / 23 m 4,479 ft / 1,365 m 323.94° 335.28° Asphalt 0 ft / 0 m 0 ft / 0 m

Map

Weather


0- 5 10 15 20 25 30 35+ Temperature / ° C

Clouds and Precipitation
Forecast for 2017-12-11 12:00 UTC. Updated 29 minutes ago

Ground ~20,000 ft ~40,000 ft Winds

METAR

KCGE 111125Z AUTO 00000KT 10SM BKN100 BKN120 M01/M01 A3007 RMK A01

TAF

Not found

Frequencies

Recorded 120.67 MHz AWOS 3
Approach 127.95 MHz PATUXENT APP/DEP
Unicom 122.70 MHz CTAF/UNICOM
Warning: Do not use this data for real-world aviation or navigation. No guarantee of current accuracy is given.